Time;durP1;ratioP1;P1;durP2;ratioP2;P2;SDS_P1;SDS_P2;PMS_P1;PMS_P2;Temp;Humidity;BMP_temperature;BMP_pressure;BME280_temperature;BME280_humidity;BME280_pressure;Samples;Min_cycle;Max_cycle;Signal;HPM_P1;HPM_P2
2022/06/02 00:04:18;;;;;;;10.27;5.90;;;;;;;17.48;100.00;97082.34;4987734;28;20408;-66
2022/06/02 00:07:30;;;;;;;7.50;5.47;;;;;;;17.45;100.00;97077.56;5005393;28;20058;-67
2022/06/02 00:10:27;;;;;;;10.57;5.72;;;;;;;17.42;100.00;97076.34;5005407;28;20140;-66
2022/06/02 00:13:26;;;;;;;9.63;5.55;;;;;;;17.36;100.00;97071.59;5005405;28;20148;-70
2022/06/02 00:16:00;;;;;;;11.20;5.65;;;;;;;17.40;100.00;97072.38;5005215;28;20057;-66
2022/06/02 00:18:43;;;;;;;9.93;5.78;;;;;;;17.42;100.00;97070.75;5005804;28;20066;-66
2022/06/02 00:21:37;;;;;;;9.30;6.07;;;;;;;17.46;100.00;97076.34;5005357;28;20062;-66
2022/06/02 00:24:52;;;;;;;11.30;5.72;;;;;;;17.26;100.00;97016.50;4986572;28;20063;-67
2022/06/02 00:27:55;;;;;;;13.05;6.15;;;;;;;17.60;98.31;97060.19;5004979;28;20143;-70
2022/06/02 00:30:31;;;;;;;9.82;5.78;;;;;;;17.55;98.32;97059.84;4983991;28;20062;-70
2022/06/02 00:36:04;;;;;;;10.60;6.22;;;;;;;17.47;100.00;97049.91;5004775;28;20060;-70
2022/06/02 00:38:42;;;;;;;10.80;6.25;;;;;;;17.48;100.00;97062.72;4984226;28;20066;-70
2022/06/02 00:41:42;;;;;;;8.95;5.53;;;;;;;17.42;100.00;97061.56;5003268;28;20069;-70
2022/06/02 00:44:41;;;;;;;10.98;5.43;;;;;;;17.40;100.00;97049.97;4984716;28;20057;-66
2022/06/02 00:48:14;;;;;;;;;;;;;;;;;;;;;
2022/06/02 00:50:45;;;;;;;9.13;5.60;;;;;;;17.24;100.00;97052.50;4943581;29;20135;-70
2022/06/02 00:53:34;;;;;;;9.32;5.50;;;;;;;17.13;100.00;97046.22;4927515;28;20067;-70
2022/06/02 01:02:44;;;;;;;6.82;4.55;;;;;;;17.08;100.00;97043.84;4981861;28;20088;-70
2022/06/02 01:05:17;;;;;;;9.57;5.88;;;;;;;17.03;100.00;97049.88;4981882;28;20473;-66
2022/06/02 01:08:22;;;;;;;8.48;5.75;;;;;;;17.06;100.00;97035.88;4966171;28;20064;-71
2022/06/02 01:11:04;;;;;;;6.82;5.57;;;;;;;17.10;100.00;97047.03;4981807;28;20054;-70
2022/06/02 01:13:56;;;;;;;11.18;5.68;;;;;;;17.01;100.00;97033.50;4985182;28;20062;-66
2022/06/02 01:17:03;;;;;;;9.30;5.65;;;;;;;16.93;100.00;97036.78;4984560;28;20065;-70
2022/06/02 01:19:44;;;;;;;10.32;5.75;;;;;;;16.88;100.00;97034.44;4984683;28;20108;-66
2022/06/02 01:26:39;;;;;;;8.65;5.15;;;;;;;16.72;100.00;97022.97;4942847;29;20570;-66
2022/06/02 01:30:05;;;;;;;7.15;5.45;;;;;;;16.68;100.00;97030.59;4969915;28;20082;-70
2022/06/02 01:32:48;;;;;;;;;;;;;;;16.64;100.00;97020.19;4984877;28;20085;-70
2022/06/02 01:35:35;;;;;;;7.00;5.43;;;;;;;16.63;100.00;97028.22;4962969;28;20350;-70
2022/06/02 01:38:34;;;;;;;8.23;5.88;;;;;;;16.66;100.00;97021.81;4983988;28;20525;-67
2022/06/02 01:41:18;;;;;;;7.70;6.18;;;;;;;16.70;100.00;97022.56;4962441;28;20144;-71
2022/06/02 01:43:45;;;;;;;;;;;;;;;16.60;100.00;97022.25;4984631;28;20058;-70
2022/06/02 01:46:50;;;;;;;9.35;5.97;;;;;;;16.60;100.00;97013.03;4998657;28;20400;-66
2022/06/02 01:49:45;;;;;;;8.80;6.22;;;;;;;16.65;100.00;97015.41;4984068;28;20383;-66
2022/06/02 01:53:04;;;;;;;10.13;5.93;;;;;;;16.61;100.00;97020.25;5001067;28;20113;-66
2022/06/02 01:56:15;;;;;;;8.00;5.55;;;;;;;16.66;100.00;97027.41;4994803;28;20050;-66
2022/06/02 01:59:01;;;;;;;14.13;5.80;;;;;;;16.66;100.00;97021.81;5000449;28;20058;-67
2022/06/02 02:01:41;;;;;;;10.43;6.53;;;;;;;16.67;100.00;97023.38;5003695;28;20160;-67
2022/06/02 02:04:31;;;;;;;9.70;5.85;;;;;;;16.71;100.00;97013.75;4985754;28;20073;-71
2022/06/02 02:07:05;;;;;;;8.13;5.32;;;;;;;16.78;100.00;97018.50;4987685;28;20066;-70
2022/06/02 02:09:45;;;;;;;15.80;5.32;;;;;;;16.78;100.00;97018.50;4986424;28;20058;-67
2022/06/02 02:12:24;;;;;;;8.82;5.65;;;;;;;16.81;100.00;97020.47;4986486;28;20090;-66
2022/06/02 02:14:51;;;;;;;7.25;4.95;;;;;;;16.78;100.00;97018.50;4987352;28;20062;-66
2022/06/02 02:17:42;;;;;;;9.38;5.80;;;;;;;16.71;100.00;97016.56;5007331;28;20050;-66
2022/06/02 02:20:26;;;;;;;9.82;5.32;;;;;;;16.67;100.00;97018.59;4983096;28;20062;-70
2022/06/02 02:23:08;;;;;;;8.43;4.85;;;;;;;16.42;100.00;96979.56;5007631;28;20081;-66
2022/06/02 02:25:54;;;;;;;7.57;5.32;;;;;;;16.58;100.00;97015.47;4986417;28;20070;-70
2022/06/02 02:29:04;;;;;;;6.90;4.85;;;;;;;16.52;100.00;97020.69;5006953;28;20058;-66
2022/06/02 02:32:23;;;;;;;7.95;5.13;;;;;;;16.48;100.00;97019.13;4948229;28;20110;-66
2022/06/02 02:35:22;;;;;;;7.82;4.70;;;;;;;16.49;100.00;97017.91;4974974;28;20119;-70
2022/06/02 02:37:57;;;;;;;6.57;4.85;;;;;;;16.47;100.00;97021.13;4985962;28;20058;-70
2022/06/02 02:40:48;;;;;;;13.13;5.40;;;;;;;16.42;100.00;97017.94;4986313;28;20050;-66
2022/06/02 02:43:25;;;;;;;8.50;6.05;;;;;;;16.41;100.00;97016.34;5007056;28;20054;-66
2022/06/02 02:46:50;;;;;;;9.75;6.05;;;;;;;16.26;100.00;97021.22;5007611;28;20116;-70
2022/06/02 02:50:01;;;;;;;13.30;6.88;;;;;;;16.19;100.00;97026.84;4929746;29;20063;-71
2022/06/02 02:52:49;;;;;;;12.05;6.72;;;;;;;15.92;100.00;96989.47;4929583;29;20115;-71
2022/06/02 02:55:21;;;;;;;9.80;6.10;;;;;;;16.21;100.00;97035.63;5006364;28;20064;-70
2022/06/02 02:58:05;;;;;;;11.38;6.20;;;;;;;15.93;100.00;96985.44;4986033;28;20062;-66
2022/06/02 03:01:03;;;;;;;;;;;;;;;;;;;;;
2022/06/02 03:07:22;;;;;;;11.05;7.10;;;;;;;16.52;100.00;97040.25;5007152;28;20560;-65
2022/06/02 03:10:16;;;;;;;9.07;5.85;;;;;;;16.63;100.00;97045.00;5006954;28;20068;-66
2022/06/02 03:13:31;;;;;;;11.93;6.80;;;;;;;16.75;100.00;97041.72;5006872;28;20054;-65
2022/06/02 03:16:13;;;;;;;9.48;6.13;;;;;;;16.85;100.00;97041.63;4983462;28;20072;-66
2022/06/02 03:19:09;;;;;;;9.50;6.18;;;;;;;16.98;100.00;97039.94;4984981;28;20464;-66
2022/06/02 03:22:07;;;;;;;8.60;5.28;;;;;;;16.99;100.00;97046.34;5001929;28;20161;-71
2022/06/02 03:25:03;;;;;;;14.05;6.15;;;;;;;16.90;100.00;97034.81;4995482;28;20089;-70
2022/06/02 03:27:48;;;;;;;10.57;7.65;;;;;;;17.05;100.00;97044.69;4983179;28;20107;-70
2022/06/02 03:30:37;;;;;;;9.95;7.85;;;;;;;17.19;99.77;97055.75;5006091;28;20053;-69
2022/06/02 03:33:35;;;;;;;10.18;7.93;;;;;;;17.28;98.61;97058.88;5003939;28;20054;-66
2022/06/02 03:36:51;;;;;;;9.80;6.20;;;;;;;17.29;99.36;97054.88;5006270;28;20264;-70
2022/06/02 03:39:25;;;;;;;7.18;5.15;;;;;;;17.39;98.15;97051.97;4987704;28;20061;-67
2022/06/02 03:42:23;;;;;;;9.18;4.93;;;;;;;17.45;97.30;97046.75;5005725;28;20574;-66
2022/06/02 03:45:30;;;;;;;6.45;4.85;;;;;;;17.50;97.70;97049.09;5005846;28;20068;-70
2022/06/02 03:49:08;;;;;;;6.90;4.65;;;;;;;17.63;97.44;97052.97;5006016;28;20505;-70
2022/06/02 03:51:44;;;;;;;6.47;5.07;;;;;;;17.61;98.45;97053.38;4909484;29;20059;-70
2022/06/02 03:54:58;;;;;;;7.03;5.32;;;;;;;17.76;98.46;97045.63;4906756;29;20064;-65
2022/06/02 03:58:07;;;;;;;;;;;;;;;;;;;;;
2022/06/02 04:00:48;;;;;;;6.55;4.38;;;;;;;18.02;95.92;97053.31;4986151;28;20167;-70
2022/06/02 04:03:38;;;;;;;6.78;4.70;;;;;;;18.00;96.76;97055.75;4985926;28;20062;-65
2022/06/02 04:06:36;;;;;;;10.25;4.57;;;;;;;17.79;98.25;97044.78;4968926;28;20058;-70
2022/06/02 04:09:32;;;;;;;6.68;4.88;;;;;;;18.05;97.25;97053.28;4986041;28;20070;-71
2022/06/02 04:15:51;;;;;;;6.75;4.50;;;;;;;18.16;95.72;97021.50;4985421;28;20062;-66
2022/06/02 04:22:26;;;;;;;7.15;4.88;;;;;;;18.44;94.93;97013.53;4945524;28;20098;-70
2022/06/02 04:25:00;;;;;;;6.82;4.38;;;;;;;18.67;94.79;97044.47;4983451;28;20674;-70
2022/06/02 04:27:46;;;;;;;11.57;5.13;;;;;;;18.90;93.67;97047.34;4980416;28;20062;-70
2022/06/02 04:30:26;;;;;;;15.80;5.07;;;;;;;18.98;94.32;97043.19;4967712;28;20054;-66
2022/06/02 04:33:15;;;;;;;16.73;5.03;;;;;;;19.21;93.33;97040.41;4985165;28;20516;-70
2022/06/02 04:36:25;;;;;;;10.95;4.25;;;;;;;19.51;91.41;97040.31;4985249;28;20054;-70
2022/06/02 04:39:33;;;;;;;5.93;4.07;;;;;;;19.73;90.08;97042.72;4985422;28;20105;-71
2022/06/02 04:42:29;;;;;;;8.63;5.10;;;;;;;19.87;89.01;97048.06;4966664;28;20078;-66
2022/06/02 04:45:34;;;;;;;10.53;4.67;;;;;;;20.06;87.53;97048.06;4967038;28;20062;-66
2022/06/02 04:48:39;;;;;;;10.70;5.30;;;;;;;20.21;87.51;97040.19;4984567;28;20066;-69
2022/06/02 04:58:36;;;;;;;7.43;6.00;;;;;;;20.76;85.39;97052.22;4963363;28;20073;-70
2022/06/02 05:01:31;;;;;;;7.85;5.93;;;;;;;20.90;84.34;97048.28;4962930;28;20050;-66
2022/06/02 05:04:51;;;;;;;13.15;6.15;;;;;;;21.05;82.92;97052.38;4984429;28;20513;-71
2022/06/02 05:07:57;;;;;;;10.27;6.43;;;;;;;21.19;83.85;97043.59;4984862;28;20058;-71
2022/06/02 05:10:34;;;;;;;10.77;5.55;;;;;;;21.39;83.05;97051.94;4976923;28;20563;-67
2022/06/02 05:13:42;;;;;;;9.38;5.95;;;;;;;21.45;83.22;97050.97;4985056;28;20097;-70
2022/06/02 05:16:45;;;;;;;10.75;5.82;;;;;;;21.54;82.99;97056.00;4983007;28;20148;-66
2022/06/02 05:19:38;;;;;;;8.07;5.57;;;;;;;21.77;82.65;97050.97;4996542;28;20061;-67
2022/06/02 05:22:33;;;;;;;9.70;5.60;;;;;;;21.86;81.82;97058.81;4983183;28;20089;-66
2022/06/02 05:45:55;;;;;;;10.23;4.95;;;;;;;23.38;73.28;97053.81;5004803;28;20768;-64
2022/06/02 05:49:28;;;;;;;13.40;5.22;;;;;;;23.71;70.61;97051.50;4927507;29;20063;-66
2022/06/02 05:52:59;;;;;;;10.00;5.50;;;;;;;23.98;69.71;97051.75;4917677;29;20091;-68
2022/06/02 05:55:51;;;;;;;8.23;5.28;;;;;;;24.04;69.32;97047.13;4933715;28;20070;-70
2022/06/02 05:58:24;;;;;;;10.27;5.15;;;;;;;24.20;67.71;97044.06;5003199;28;20057;-66
2022/06/02 06:01:09;;;;;;;9.52;5.35;;;;;;;24.52;67.50;97038.03;5013562;28;20049;-65
2022/06/02 06:04:20;;;;;;;9.80;5.20;;;;;;;24.67;67.78;97039.09;4985329;28;20054;-71
2022/06/02 06:07:06;;;;;;;8.85;5.72;;;;;;;24.89;66.52;97034.19;4996029;28;20515;-67
2022/06/02 06:10:04;;;;;;;9.65;4.93;;;;;;;25.05;65.26;97041.66;5023765;28;20119;-66
2022/06/02 06:13:08;;;;;;;7.45;4.78;;;;;;;25.22;64.58;97045.81;5017633;28;20549;-65
2022/06/02 06:15:53;;;;;;;6.65;4.95;;;;;;;25.26;63.74;97044.41;5015277;28;20188;-66
2022/06/02 06:18:45;;;;;;;8.20;5.10;;;;;;;25.52;63.70;97041.34;5022956;28;20067;-67
2022/06/02 06:21:24;;;;;;;6.95;4.40;;;;;;;25.75;61.73;97044.41;5019950;28;20079;-67
2022/06/02 06:23:57;;;;;;;4.97;4.43;;;;;;;25.99;62.29;97044.59;5004196;28;20073;-66
2022/06/02 06:26:45;;;;;;;6.32;4.68;;;;;;;26.27;59.21;97043.38;4995181;28;20433;-66
2022/06/02 06:29:50;;;;;;;9.50;5.22;;;;;;;26.29;59.24;97043.66;5006204;28;20054;-65
2022/06/02 06:32:19;;;;;;;7.38;4.72;;;;;;;26.26;57.06;97038.94;5001949;28;20057;-65
2022/06/02 06:35:07;;;;;;;5.65;4.03;;;;;;;26.51;55.47;97049.97;4993280;28;20144;-66
2022/06/02 06:37:39;;;;;;;9.90;5.10;;;;;;;26.53;54.74;97042.56;5004641;28;20062;-66
2022/06/02 06:40:21;;;;;;;6.72;4.53;;;;;;;26.48;53.98;97045.22;5003436;28;20152;-66
2022/06/02 06:43:04;;;;;;;8.20;4.70;;;;;;;26.58;53.99;97043.97;5013887;28;20057;-66
2022/06/02 06:45:55;;;;;;;6.95;4.75;;;;;;;26.84;54.12;97042.38;5007540;28;20060;-65
2022/06/02 06:48:32;;;;;;;5.70;4.75;;;;;;;26.82;53.50;97036.38;5018840;28;20475;-65
2022/06/02 06:51:01;;;;;;;8.95;4.55;;;;;;;27.03;53.40;97018.28;5003296;28;20613;-66
2022/06/02 06:53:49;;;;;;;5.78;5.25;;;;;;;27.39;53.01;97029.53;5015795;28;20053;-66
2022/06/02 06:56:38;;;;;;;8.27;4.85;;;;;;;27.61;52.63;97027.19;4987250;28;20054;-64
2022/06/02 06:59:29;;;;;;;5.13;4.60;;;;;;;27.93;51.94;97034.16;5001345;28;20464;-65
2022/06/02 07:02:18;;;;;;;8.10;4.68;;;;;;;28.06;50.60;97032.59;5006420;28;20148;-67
2022/06/02 07:05:01;;;;;;;9.20;6.03;;;;;;;27.98;50.85;97028.56;5005452;28;20144;-67
2022/06/02 07:07:57;;;;;;;6.43;4.80;;;;;;;27.76;51.26;97030.88;5022852;28;20084;-68
2022/06/02 07:10:38;;;;;;;15.85;8.48;;;;;;;27.76;51.33;97001.63;5006654;28;20061;-67
2022/06/02 07:13:11;;;;;;;15.73;8.18;;;;;;;28.18;51.38;97028.69;5016612;28;20575;-63
2022/06/02 07:15:55;;;;;;;10.55;5.60;;;;;;;28.21;49.60;97031.84;5014817;28;20444;-66
2022/06/02 07:18:38;;;;;;;6.65;5.97;;;;;;;28.01;50.87;97030.41;5018794;28;20085;-64
2022/06/02 07:21:15;;;;;;;5.63;4.47;;;;;;;28.20;50.83;97036.00;4994777;28;20049;-64
2022/06/02 07:24:12;;;;;;;6.50;4.82;;;;;;;28.42;50.67;97036.44;5012524;28;20068;-64
2022/06/02 07:27:09;;;;;;;13.70;8.55;;;;;;;28.61;49.80;97029.31;4985865;28;20081;-62
2022/06/02 07:29:54;;;;;;;6.95;4.70;;;;;;;28.61;48.47;97030.06;4986795;28;20086;-62
2022/06/02 07:32:39;;;;;;;8.40;5.55;;;;;;;28.11;50.15;97023.38;4986358;28;20062;-60
2022/06/02 07:35:20;;;;;;;6.75;4.65;;;;;;;27.98;50.04;97022.06;4986175;28;20070;-60
2022/06/02 07:37:50;;;;;;;4.95;4.55;;;;;;;28.29;48.37;97031.00;4985001;28;20058;-60
2022/06/02 07:40:35;;;;;;;4.80;4.40;;;;;;;28.42;49.03;97030.72;4984709;28;20531;-61
2022/06/02 07:43:39;;;;;;;7.60;5.28;;;;;;;27.75;49.67;97023.63;4984922;28;21255;-61
2022/06/02 07:46:09;;;;;;;6.22;4.30;;;;;;;28.25;48.79;97029.63;4989992;28;20145;-60
2022/06/02 07:49:23;;;;;;;7.30;4.03;;;;;;;28.56;46.77;97025.09;5005183;28;20062;-62
2022/06/02 07:52:08;;;;;;;8.45;5.13;;;;;;;28.69;46.39;97039.06;4993065;28;20049;-62
2022/06/02 07:54:50;;;;;;;5.53;4.43;;;;;;;28.91;44.81;97028.03;5003689;28;20065;-62
2022/06/02 07:57:31;;;;;;;6.18;4.70;;;;;;;28.36;46.51;97029.84;5005305;28;20624;-61
2022/06/02 08:00:20;;;;;;;6.18;4.60;;;;;;;28.71;45.97;97025.88;5005193;28;20057;-61
2022/06/02 08:02:53;;;;;;;6.72;4.32;;;;;;;28.88;43.24;97026.16;4997921;28;20053;-60
2022/06/02 08:05:31;;;;;;;4.43;4.03;;;;;;;28.56;43.02;97029.97;5012767;28;20061;-62
2022/06/02 08:08:29;;;;;;;4.47;3.42;;;;;;;28.77;43.46;97031.69;5006188;28;20069;-60
2022/06/02 08:11:05;;;;;;;3.90;3.63;;;;;;;29.02;39.43;97025.38;4993525;28;20061;-62
2022/06/02 08:13:53;;;;;;;4.70;3.60;;;;;;;29.28;41.59;97020.63;4996019;28;20053;-60
2022/06/02 08:16:27;;;;;;;6.20;4.50;;;;;;;29.63;41.48;97021.44;5002602;28;20054;-60
2022/06/02 08:19:06;;;;;;;6.57;4.18;;;;;;;29.76;41.42;97024.75;5002829;28;20060;-60
2022/06/02 08:21:41;;;;;;;4.82;4.28;;;;;;;30.00;41.68;97011.06;4999123;28;20537;-60
2022/06/02 08:24:14;;;;;;;8.27;5.10;;;;;;;30.22;40.03;97022.81;5005472;28;20065;-62
2022/06/02 08:27:02;;;;;;;8.20;4.20;;;;;;;30.22;40.02;97019.94;5004293;28;20054;-62
2022/06/02 08:29:40;;;;;;;3.42;3.08;;;;;;;30.56;39.37;97018.22;4998353;28;20080;-62
2022/06/02 08:32:30;;;;;;;3.95;3.40;;;;;;;30.71;39.45;96991.06;5000146;28;20457;-61
2022/06/02 08:35:35;;;;;;;4.60;4.20;;;;;;;29.25;40.37;97018.75;4987036;28;20128;-60
2022/06/02 08:38:07;;;;;;;4.38;3.97;;;;;;;29.33;40.88;97014.22;5002604;28;20069;-58
2022/06/02 08:44:25;;;;;;;4.60;4.20;;;;;;;29.98;40.59;97007.91;5007367;28;20587;-59
2022/06/02 08:47:30;;;;;;;7.35;4.47;;;;;;;29.35;38.87;97017.38;5009624;28;20071;-59
2022/06/02 08:50:18;;;;;;;5.07;3.70;;;;;;;29.99;39.48;97009.47;5014898;28;20505;-62
2022/06/02 08:52:48;;;;;;;4.78;4.38;;;;;;;30.26;39.30;97011.94;5011517;28;20061;-59
2022/06/02 08:55:58;;;;;;;8.65;4.03;;;;;;;30.28;37.80;96997.91;4982710;28;20062;-59
2022/06/02 08:59:02;;;;;;;4.05;3.75;;;;;;;30.50;37.19;97006.75;4986584;28;20153;-61
2022/06/02 09:01:28;;;;;;;;;;;;;;;30.37;37.95;97011.25;5018460;28;20359;-60
2022/06/02 09:04:43;;;;;;;4.53;4.03;;;;;;;30.62;38.11;97011.28;5006633;28;19924;-61
2022/06/02 09:07:25;;;;;;;5.43;4.70;;;;;;;31.08;36.63;97004.72;4994246;28;20617;-62
2022/06/02 09:10:30;;;;;;;5.97;4.05;;;;;;;31.02;37.54;96998.94;5011372;28;20050;-60
2022/06/02 09:13:15;;;;;;;5.70;3.83;;;;;;;31.27;37.00;97003.06;5010809;28;20057;-61
2022/06/02 09:15:58;;;;;;;5.00;3.75;;;;;;;31.18;37.87;96997.50;4994407;28;20064;-61
2022/06/02 09:18:40;;;;;;;4.97;3.92;;;;;;;31.72;36.54;97011.47;5013273;28;20066;-61
2022/06/02 09:21:40;;;;;;;4.32;3.97;;;;;;;30.47;37.48;97004.91;5006468;28;20111;-66
2022/06/02 09:24:25;;;;;;;5.22;3.38;;;;;;;30.95;36.58;97005.91;5008223;28;20058;-62
2022/06/02 09:27:22;;;;;;;4.70;3.95;;;;;;;30.36;36.93;96999.06;5010356;28;20054;-59
2022/06/02 09:31:46;;;;;;;5.38;3.65;;;;;;;31.03;37.53;96999.72;5080952;27;1329689;-59
2022/06/02 09:34:39;;;;;;;5.22;4.07;;;;;;;31.70;36.80;96996.84;5115746;28;20436;-60
2022/06/02 09:37:57;;;;;;;7.53;4.47;;;;;;;31.60;37.36;96997.59;5117844;28;20040;-60
2022/06/02 09:40:45;;;;;;;5.93;4.32;;;;;;;30.68;37.37;97005.63;5066096;27;20055;-58
2022/06/02 09:43:21;;;;;;;7.50;4.22;;;;;;;31.38;35.92;97003.16;5121133;27;20074;-59
2022/06/02 09:46:23;;;;;;;3.95;3.58;;;;;;;31.70;35.22;96990.34;5120393;27;20074;-61
2022/06/02 09:49:45;;;;;;;5.13;3.80;;;;;;;31.47;35.55;96997.22;4987731;28;20655;-61
2022/06/02 09:52:48;;;;;;;4.70;4.30;;;;;;;31.77;35.32;96984.13;5028171;28;20084;-60
2022/06/02 09:55:36;;;;;;;6.75;4.97;;;;;;;31.30;35.75;96996.31;5027347;28;20049;-62
2022/06/02 09:58:41;;;;;;;6.57;4.50;;;;;;;31.23;36.58;96999.63;5038971;28;20049;-61
2022/06/02 10:01:16;;;;;;;6.30;4.93;;;;;;;31.35;36.12;96998.44;5025536;28;20418;-60
2022/06/02 10:04:15;;;;;;;6.15;4.53;;;;;;;31.54;36.29;96994.66;5039011;28;20083;-61
2022/06/02 10:07:07;;;;;;;4.40;3.95;;;;;;;31.58;35.20;96988.72;5026752;28;20053;-61
2022/06/02 10:09:52;;;;;;;7.97;4.72;;;;;;;32.05;34.92;96982.19;5034205;28;20061;-59
2022/06/02 10:15:46;;;;;;;6.95;6.50;;;;;;;30.52;35.58;96949.84;5039346;28;20139;-62
2022/06/02 10:18:26;;;;;;;6.80;6.20;;;;;;;30.94;34.89;96998.63;5036972;28;20068;-59
2022/06/02 10:21:15;;;;;;;6.15;5.40;;;;;;;31.29;34.23;96983.28;5038227;28;20053;-60
2022/06/02 10:24:06;;;;;;;7.90;7.18;;;;;;;31.59;33.95;96993.13;5037224;28;20049;-60
2022/06/02 10:26:48;;;;;;;7.00;6.40;;;;;;;31.94;33.35;96979.28;5034296;28;20049;-60
2022/06/02 10:29:30;;;;;;;12.00;6.97;;;;;;;32.21;32.55;96972.88;5027064;28;20071;-62
2022/06/02 10:31:57;;;;;;;7.93;7.32;;;;;;;32.14;33.75;96979.09;5029234;28;20436;-60
2022/06/02 10:34:57;;;;;;;9.30;8.40;;;;;;;32.66;33.62;96971.72;5037473;28;20049;-63
2022/06/02 10:37:42;;;;;;;6.28;5.82;;;;;;;32.90;32.73;96972.03;5035741;28;20061;-59
2022/06/02 10:40:20;;;;;;;7.93;6.28;;;;;;;32.54;31.75;96861.13;5027733;28;20057;-58
2022/06/02 10:43:06;;;;;;;6.55;6.05;;;;;;;33.51;31.38;96964.16;5025041;28;20638;-62
2022/06/02 10:45:51;;;;;;;7.72;7.13;;;;;;;33.62;31.11;96961.28;5023414;28;20053;-61
2022/06/02 10:48:36;;;;;;;7.10;6.57;;;;;;;32.38;31.62;96970.88;5024795;28;20045;-62
2022/06/02 10:51:14;;;;;;;6.68;6.18;;;;;;;31.69;32.01;96958.06;5025048;28;20072;-59
2022/06/02 10:54:16;;;;;;;5.93;5.63;;;;;;;31.92;30.29;96958.94;5025682;28;20057;-60
2022/06/02 10:56:46;;;;;;;6.28;5.88;;;;;;;32.33;29.47;96963.00;5025331;28;20061;-59
2022/06/02 10:59:31;;;;;;;6.22;5.93;;;;;;;31.88;29.88;96961.28;5024175;28;20061;-62
2022/06/02 11:02:16;;;;;;;7.30;5.50;;;;;;;32.43;28.95;96955.75;5023369;28;20054;-59
2022/06/02 11:05:03;;;;;;;6.78;6.28;;;;;;;32.62;29.81;96953.97;5020173;28;20484;-60
2022/06/02 11:07:42;;;;;;;7.28;6.70;;;;;;;32.35;31.00;96954.66;5025492;28;20075;-61
2022/06/02 11:10:12;;;;;;;6.25;5.85;;;;;;;32.80;31.02;96950.59;5024335;28;20068;-62
2022/06/02 11:12:38;;;;;;;7.60;7.10;;;;;;;33.03;31.21;96940.72;5022911;28;20524;-61
2022/06/02 11:15:47;;;;;;;7.40;6.75;;;;;;;33.29;31.04;96935.44;5024955;28;20053;-62
2022/06/02 11:18:32;;;;;;;6.95;6.55;;;;;;;32.97;31.96;96937.06;4961700;28;20603;-61
2022/06/02 11:20:58;;;;;;;7.35;6.93;;;;;;;32.72;31.29;96943.81;4963474;28;20059;-60
2022/06/02 11:23:48;;;;;;;7.03;6.43;;;;;;;32.91;30.56;96944.88;4981470;28;20053;-62
2022/06/02 11:26:49;;;;;;;7.18;6.55;;;;;;;32.33;30.47;96942.94;5023675;28;20048;-62
2022/06/02 11:29:18;;;;;;;6.15;5.85;;;;;;;32.17;29.48;96943.66;5014998;28;20454;-60
2022/06/02 11:32:09;;;;;;;7.20;6.70;;;;;;;32.27;30.11;96945.00;5024011;28;20062;-64
2022/06/02 11:35:06;;;;;;;7.05;6.40;;;;;;;31.88;31.99;96935.50;5023573;28;20049;-60
2022/06/02 11:38:10;;;;;;;6.75;6.35;;;;;;;31.37;33.34;96941.44;5024851;28;20065;-62
2022/06/02 11:41:12;;;;;;;6.70;6.18;;;;;;;30.84;32.98;96865.59;5023746;28;20080;-62
2022/06/02 11:43:57;;;;;;;6.90;6.22;;;;;;;30.87;31.75;96936.13;5020313;28;20057;-65
2022/06/02 11:46:45;;;;;;;7.00;6.50;;;;;;;31.36;32.40;96934.16;5010082;28;20053;-63
2022/06/02 11:49:21;;;;;;;6.30;5.85;;;;;;;31.29;31.30;96926.00;5020596;28;20104;-61
2022/06/02 11:51:59;;;;;;;5.82;5.32;;;;;;;30.54;31.06;96844.28;5023459;28;20515;-62
2022/06/02 11:54:44;;;;;;;10.10;6.13;;;;;;;31.20;31.93;96929.88;5022886;28;20057;-61
2022/06/02 11:57:45;;;;;;;6.32;5.93;;;;;;;31.44;32.82;96920.94;5023820;28;20500;-68
2022/06/02 12:00:45;;;;;;;6.15;5.75;;;;;;;31.27;33.86;96922.88;5018104;28;20046;-63
2022/06/02 12:03:29;;;;;;;5.68;5.28;;;;;;;30.87;30.54;96924.66;5015129;28;20610;-64
2022/06/02 12:05:55;;;;;;;6.57;6.00;;;;;;;31.13;30.53;96906.63;5019121;28;20049;-69
2022/06/02 12:08:56;;;;;;;6.32;5.90;;;;;;;31.71;29.22;96917.44;5023505;28;20052;-65
2022/06/02 12:11:44;;;;;;;6.38;5.90;;;;;;;31.88;28.18;96912.56;5021223;28;20076;-69
2022/06/02 12:14:43;;;;;;;7.22;6.63;;;;;;;31.79;28.28;96902.06;5013363;28;20062;-62
2022/06/02 12:17:48;;;;;;;7.25;6.43;;;;;;;31.67;29.54;96905.41;4980777;28;20064;-64
2022/06/02 12:20:52;;;;;;;6.53;5.93;;;;;;;31.72;28.96;96896.06;5007490;28;20046;-65
2022/06/02 12:23:22;;;;;;;6.75;6.25;;;;;;;32.19;29.03;96898.84;5011954;28;20053;-64
2022/06/02 12:25:58;;;;;;;7.03;6.35;;;;;;;33.45;27.92;96890.81;5018599;28;20060;-63
2022/06/02 12:28:34;;;;;;;6.25;5.85;;;;;;;34.70;27.08;96884.13;5021427;28;20056;-67
2022/06/02 12:31:12;;;;;;;6.50;6.10;;;;;;;33.29;28.45;96888.72;5009075;28;20079;-63
2022/06/02 12:33:40;;;;;;;6.95;6.45;;;;;;;33.71;27.95;96886.28;5012836;28;20606;-67
2022/06/02 12:36:17;;;;;;;6.82;6.43;;;;;;;34.91;27.62;96888.19;5015110;28;20048;-65
2022/06/02 12:38:59;;;;;;;6.47;5.57;;;;;;;35.58;26.61;96894.88;5014441;28;20068;-66
2022/06/02 12:41:47;;;;;;;6.25;5.85;;;;;;;34.37;27.01;96895.88;5014060;28;20049;-64
2022/06/02 12:44:38;;;;;;;6.57;6.18;;;;;;;35.48;26.46;96892.88;5015210;28;20057;-66
2022/06/02 12:47:37;;;;;;;6.55;6.05;;;;;;;34.75;27.41;96889.84;5013273;28;20483;-68
2022/06/02 12:50:22;;;;;;;6.95;6.30;;;;;;;34.12;27.17;96888.44;5003088;28;20060;-68
2022/06/02 12:53:23;;;;;;;6.80;6.15;;;;;;;34.88;26.79;96889.25;5012930;28;20157;-65
2022/06/02 12:56:08;;;;;;;6.95;6.35;;;;;;;34.81;27.47;96884.03;5013602;28;20049;-67
2022/06/02 12:59:15;;;;;;;6.70;6.15;;;;;;;34.49;28.33;96862.88;5022634;28;20547;-66
2022/06/02 13:02:04;;;;;;;7.30;6.88;;;;;;;34.31;26.59;96892.25;5028378;28;20511;-64
2022/06/02 13:04:34;;;;;;;6.05;5.65;;;;;;;34.24;26.85;96882.09;5010839;28;20136;-64
2022/06/02 13:07:23;;;;;;;6.30;5.85;;;;;;;34.43;26.25;96888.03;5014347;28;20508;-65
2022/06/02 13:10:27;;;;;;;7.07;6.57;;;;;;;35.24;25.26;96879.22;5014056;28;20071;-66
2022/06/02 13:12:57;;;;;;;6.38;5.85;;;;;;;33.12;27.53;96885.88;5027137;28;20057;-60
2022/06/02 13:15:29;;;;;;;7.43;6.63;;;;;;;32.29;28.20;96894.44;5015360;28;20372;-62
2022/06/02 13:18:18;;;;;;;7.10;6.68;;;;;;;32.31;28.59;96885.31;5021133;28;20049;-61
2022/06/02 13:21:15;;;;;;;6.68;6.28;;;;;;;32.31;29.06;96857.41;5023143;28;20057;-62
2022/06/02 13:24:08;;;;;;;7.72;7.22;;;;;;;32.08;30.32;96860.75;5022406;28;20530;-62
2022/06/02 13:26:50;;;;;;;6.45;6.15;;;;;;;31.54;34.11;96885.03;5021066;28;20119;-60
2022/06/02 13:29:54;;;;;;;12.05;6.88;;;;;;;31.58;35.76;96882.72;5022861;28;20064;-60
2022/06/02 13:32:39;;;;;;;7.78;7.00;;;;;;;31.57;35.07;96879.06;5021290;28;20512;-61
2022/06/02 13:35:31;;;;;;;6.60;6.10;;;;;;;31.06;35.66;96875.63;5021350;28;20049;-61
2022/06/02 13:38:24;;;;;;;7.05;6.60;;;;;;;31.58;35.73;96871.25;5023118;28;20146;-61
2022/06/02 13:41:21;;;;;;;7.07;6.47;;;;;;;31.58;35.99;96874.13;5037981;28;20059;-61
2022/06/02 13:44:04;;;;;;;8.02;7.20;;;;;;;31.94;35.72;96867.50;5038353;28;20480;-62
2022/06/02 13:46:49;;;;;;;8.10;7.40;;;;;;;31.41;36.15;96870.41;5037910;28;20132;-61
2022/06/02 13:49:40;;;;;;;6.63;6.20;;;;;;;31.17;37.22;96867.13;5022871;28;20061;-61
2022/06/02 13:52:25;;;;;;;6.88;6.30;;;;;;;31.61;36.28;96861.63;5021424;28;20069;-60
2022/06/02 13:58:02;;;;;;;7.13;6.53;;;;;;;32.07;34.89;96870.69;5022752;28;20062;-62
2022/06/02 14:00:31;;;;;;;7.35;6.75;;;;;;;33.23;33.28;96862.88;5006546;28;20429;-60
2022/06/02 14:03:16;;;;;;;7.35;6.70;;;;;;;34.52;32.07;96862.59;5001768;28;20484;-62
2022/06/02 14:06:05;;;;;;;6.95;6.53;;;;;;;34.51;31.70;96860.25;5002718;28;20093;-61
2022/06/02 14:09:03;;;;;;;7.00;6.60;;;;;;;34.08;30.81;96856.31;5002797;28;20539;-62
2022/06/02 14:11:45;;;;;;;6.88;6.47;;;;;;;33.95;31.94;96859.78;5002587;28;20062;-61
2022/06/02 14:14:12;;;;;;;7.22;6.63;;;;;;;34.05;31.72;96863.13;5002529;28;20509;-60
2022/06/02 14:16:50;;;;;;;7.78;6.38;;;;;;;34.17;30.15;96807.09;5003545;28;20203;-59
2022/06/02 14:19:29;;;;;;;8.07;7.32;;;;;;;34.26;30.30;96865.09;5005130;28;20424;-63
2022/06/02 14:22:21;;;;;;;7.72;7.00;;;;;;;35.77;29.05;96861.09;5006564;28;20068;-60
2022/06/02 14:24:56;;;;;;;8.32;7.70;;;;;;;33.98;31.25;96863.69;5006923;28;20064;-60